Terminal Aerodrome Forecast
Issued by NWS Sterling, VA

Current Version | Previous Version | Graphics & Text | Print | Product List | Glossary On
Versions: 1 2 3 4 5 6 7 8 9 10 11 12 13 14 15 16 17 18 19
000
FTUS41 KLWX 281700
TAFMRB
TAF
KMRB 281730Z 2818/2918 30012G20KT P6SM SKC
     FM282300 32006KT P6SM SKC
     FM291200 00000KT P6SM SCT080 BKN100
     FM291500 15007KT P6SM SCT060 OVC090=

USA.gov is the U.S. government's official web portal to all federal, state and local government web resources and services.